createdAt,value
2023-03-04T00:01:11.838Z,101586.09
2023-03-04T00:03:41.864Z,101625.88
2023-03-04T00:06:12.035Z,101626.06
2023-03-04T00:08:45.504Z,101623.41
2023-03-04T00:11:18.058Z,101621.81
2023-03-04T00:13:47.969Z,101622.91
2023-03-04T00:16:18.220Z,101610.91
2023-03-04T00:18:48.174Z,101621.50
2023-03-04T00:21:18.165Z,101620.59
2023-03-04T00:23:48.202Z,101617.81
2023-03-04T00:26:21.210Z,101619.81
2023-03-04T00:28:55.649Z,101619.09
2023-03-04T00:31:34.312Z,101614.31
2023-03-04T00:34:06.938Z,101620.00
2023-03-04T00:36:40.714Z,101615.22
2023-03-04T00:39:13.199Z,101602.84
2023-03-04T00:41:48.233Z,101612.22
2023-03-04T00:44:20.696Z,101604.53
2023-03-04T00:46:53.657Z,101614.03
2023-03-04T00:49:26.642Z,101616.50
2023-03-04T00:52:00.383Z,101609.75
2023-03-04T00:54:32.703Z,101613.63
2023-03-04T00:57:18.547Z,101609.31
2023-03-04T00:59:50.994Z,101602.25
2023-03-04T01:02:21.624Z,101597.25
2023-03-04T01:04:51.597Z,101599.25
2023-03-04T01:07:21.838Z,101597.84
2023-03-04T01:09:51.857Z,101604.47
2023-03-04T01:12:24.419Z,101587.00
2023-03-04T01:14:54.353Z,101591.06
2023-03-04T01:17:24.663Z,101588.38
2023-03-04T01:19:54.768Z,101594.47
2023-03-04T01:22:25.010Z,101582.00
2023-03-04T01:24:54.938Z,101587.38
2023-03-04T01:27:27.771Z,101588.06
2023-03-04T01:29:57.697Z,101576.28
2023-03-04T01:32:27.861Z,101485.13
2023-03-04T01:34:57.912Z,101573.09
2023-03-04T01:37:27.899Z,101567.41
2023-03-04T01:39:57.979Z,101568.31
2023-03-04T01:42:34.626Z,101562.22
2023-03-04T01:45:05.088Z,101558.09
2023-03-04T01:47:37.809Z,101556.03
2023-03-04T01:50:19.916Z,101546.72
2023-03-04T01:52:50.123Z,101538.56
2023-03-04T01:55:21.680Z,101535.34
2023-03-04T01:57:57.416Z,101541.66
2023-03-04T02:00:31.097Z,101523.47
2023-03-04T02:03:03.935Z,101528.47
2023-03-04T02:05:34.210Z,101496.94
2023-03-04T02:08:05.858Z,101516.28
2023-03-04T02:10:36.672Z,101516.72
2023-03-04T02:13:11.885Z,101516.91
2023-03-04T02:15:42.389Z,101506.13
2023-03-04T02:18:19.009Z,101513.88
2023-03-04T02:20:59.608Z,101502.31
2023-03-04T02:23:35.967Z,101506.59
2023-03-04T02:26:22.800Z,101508.38
2023-03-04T02:28:57.044Z,101510.19
2023-03-04T02:31:30.511Z,101503.59
2023-03-04T02:34:03.363Z,101498.59
2023-03-04T02:36:35.083Z,101499.31
2023-03-04T02:39:08.290Z,101491.69
2023-03-04T02:41:41.478Z,101487.81
2023-03-04T02:44:21.045Z,101485.81
2023-03-04T02:46:52.368Z,101491.88
2023-03-04T02:49:23.804Z,101481.91
2023-03-04T02:51:55.945Z,101469.84
2023-03-04T02:54:27.156Z,101486.91
2023-03-04T02:57:02.445Z,101488.72
2023-03-04T02:59:33.179Z,101477.03
2023-03-04T03:02:03.540Z,101479.59
2023-03-04T03:04:34.056Z,101456.28
2023-03-04T03:07:04.250Z,101482.31
2023-03-04T03:09:34.935Z,101484.41
2023-03-04T03:12:08.822Z,101489.81
2023-03-04T03:14:38.943Z,101481.41
2023-03-04T03:17:11.193Z,101484.09
2023-03-04T03:19:41.593Z,101474.59
2023-03-04T03:22:12.897Z,101477.69
2023-03-04T03:24:43.215Z,101472.50
2023-03-04T03:27:15.861Z,101477.19
2023-03-04T03:29:46.111Z,101480.78
2023-03-04T03:32:16.332Z,101479.34
2023-03-04T03:34:46.350Z,101474.56
2023-03-04T03:37:16.982Z,101466.88
2023-03-04T03:39:50.360Z,101470.03
2023-03-04T03:42:22.850Z,101467.91
2023-03-04T03:44:52.880Z,101460.41
2023-03-04T03:47:22.894Z,101464.13
2023-03-04T03:49:53.162Z,101459.31
2023-03-04T03:52:23.093Z,101459.00
2023-03-04T03:54:53.147Z,101462.91
2023-03-04T03:57:31.205Z,101459.38
2023-03-04T04:00:01.490Z,101456.69
2023-03-04T04:02:42.869Z,101449.75
2023-03-04T04:05:14.245Z,101459.38
2023-03-04T04:07:44.995Z,101454.38
2023-03-04T04:10:15.235Z,101446.72
2023-03-04T04:12:47.991Z,101449.94
2023-03-04T04:15:17.921Z,101453.31
2023-03-04T04:17:47.896Z,101446.53
2023-03-04T04:20:17.986Z,101449.50
2023-03-04T04:22:48.113Z,101445.94
2023-03-04T04:25:18.320Z,101451.94
2023-03-04T04:27:50.771Z,101447.28
2023-03-04T04:30:20.946Z,101448.69
2023-03-04T04:32:51.007Z,101440.66
2023-03-04T04:35:21.615Z,101446.16
2023-03-04T04:37:51.564Z,101451.78
2023-03-04T04:40:21.881Z,101447.78
2023-03-04T04:42:54.486Z,101453.09
2023-03-04T04:45:24.863Z,101440.09
2023-03-04T04:47:55.746Z,101448.59
2023-03-04T04:50:25.896Z,101436.63
2023-03-04T04:52:56.074Z,101429.06
2023-03-04T04:55:26.147Z,101425.00
2023-03-04T04:57:58.778Z,101433.94
2023-03-04T05:00:29.139Z,101431.63
2023-03-04T05:02:59.065Z,101421.28
2023-03-04T05:05:28.933Z,101425.56
2023-03-04T05:07:58.907Z,101426.66
2023-03-04T05:10:28.765Z,101423.06
2023-03-04T05:13:01.845Z,101401.94
2023-03-04T05:15:31.942Z,101417.69
2023-03-04T05:18:02.006Z,101419.47
2023-03-04T05:20:31.923Z,101403.63
2023-03-04T05:23:01.964Z,101403.13
2023-03-04T05:25:32.049Z,101414.28
2023-03-04T05:28:05.110Z,101404.31
2023-03-04T05:30:35.248Z,101409.31
2023-03-04T05:33:05.381Z,101419.69
2023-03-04T05:35:35.387Z,101416.28
2023-03-04T05:38:05.514Z,101381.81
2023-03-04T05:40:35.756Z,101417.22
2023-03-04T05:43:08.738Z,101381.63
2023-03-04T05:45:39.214Z,101386.38
2023-03-04T05:48:09.503Z,101411.81
2023-03-04T05:50:39.540Z,101410.81
2023-03-04T05:53:09.615Z,101412.72
2023-03-04T05:55:39.745Z,101412.53
2023-03-04T05:58:12.314Z,101419.88
2023-03-04T06:00:42.277Z,101416.69
2023-03-04T06:03:17.890Z,101416.19
2023-03-04T06:05:48.653Z,101424.75
2023-03-04T06:08:18.571Z,101403.91
2023-03-04T06:10:48.938Z,101407.19
2023-03-04T06:13:21.817Z,101409.69
2023-03-04T06:15:56.866Z,101410.16
2023-03-04T06:18:28.125Z,101371.53
2023-03-04T06:21:00.686Z,101421.16
2023-03-04T06:23:31.281Z,101398.78
2023-03-04T06:26:04.009Z,101422.19
2023-03-04T06:28:36.511Z,101415.88
2023-03-04T06:31:06.658Z,101402.13
2023-03-04T06:33:36.954Z,101418.91
2023-03-04T06:36:07.286Z,101382.91
2023-03-04T06:38:37.367Z,101369.69
2023-03-04T06:41:11.691Z,101414.59
2023-03-04T06:43:44.306Z,101404.63
2023-03-04T06:46:14.271Z,101419.66
2023-03-04T06:48:44.304Z,101370.75
2023-03-04T06:51:16.495Z,101406.56
2023-03-04T06:53:46.780Z,101414.41
2023-03-04T06:56:19.768Z,101416.22
2023-03-04T06:58:52.480Z,101409.75
2023-03-04T07:01:24.617Z,101408.16
2023-03-04T07:03:56.206Z,101396.88
2023-03-04T07:06:29.203Z,101407.34
2023-03-04T07:08:59.950Z,101412.63
2023-03-04T07:11:30.047Z,101407.78
2023-03-04T07:14:02.693Z,101411.84
2023-03-04T07:16:33.128Z,101411.84
2023-03-04T07:19:03.865Z,101392.41
2023-03-04T07:21:33.825Z,101404.94
2023-03-04T07:24:07.136Z,101413.63
2023-03-04T07:26:40.560Z,101406.81
2023-03-04T07:29:16.679Z,101407.00
2023-03-04T07:31:46.966Z,101419.22
2023-03-04T07:34:17.829Z,101425.44
2023-03-04T07:36:48.278Z,101428.47
2023-03-04T07:39:18.449Z,101413.00
2023-03-04T07:41:48.958Z,101428.34
2023-03-04T07:44:22.231Z,101436.00
2023-03-04T07:46:59.504Z,101415.13
2023-03-04T07:49:29.553Z,101410.63
2023-03-04T07:52:08.966Z,101401.72
2023-03-04T07:54:39.366Z,101391.47
2023-03-04T07:57:09.363Z,101420.94
2023-03-04T07:59:42.057Z,101423.25
2023-03-04T08:02:13.943Z,101415.94
2023-03-04T08:04:44.416Z,101391.28
2023-03-04T08:07:14.330Z,101424.06
2023-03-04T08:09:44.449Z,101419.97
2023-03-04T08:12:14.424Z,101424.44
2023-03-04T08:14:47.496Z,101420.19
2023-03-04T08:17:17.590Z,101413.03
2023-03-04T08:19:47.781Z,101413.69
2023-03-04T08:22:17.718Z,101428.28
2023-03-04T08:24:47.733Z,101419.69
2023-03-04T08:27:17.595Z,101409.53
2023-03-04T08:29:50.163Z,101413.56
2023-03-04T08:32:20.214Z,101416.63
2023-03-04T08:34:50.468Z,101416.38
2023-03-04T08:37:20.481Z,101406.78
2023-03-04T08:39:50.538Z,101409.06
2023-03-04T08:42:20.627Z,101412.78
2023-03-04T08:44:53.412Z,101407.78
2023-03-04T08:47:23.447Z,101417.34
2023-03-04T08:49:53.834Z,101416.72
2023-03-04T08:52:23.975Z,101416.69
2023-03-04T08:54:54.084Z,101420.16
2023-03-04T08:57:24.174Z,101419.34
2023-03-04T08:59:56.800Z,101414.25
2023-03-04T09:02:26.930Z,101417.78
2023-03-04T09:04:56.929Z,101419.84
2023-03-04T09:07:27.162Z,101414.06
2023-03-04T09:09:57.161Z,101413.16
2023-03-04T09:12:27.577Z,101420.66
2023-03-04T09:15:10.717Z,101419.44
2023-03-04T09:17:41.607Z,101425.28
2023-03-04T09:20:14.369Z,101426.50
2023-03-04T09:22:45.391Z,101428.59
2023-03-04T09:25:17.538Z,101427.72
2023-03-04T09:27:47.697Z,101352.22
2023-03-04T09:30:21.203Z,101416.81
2023-03-04T09:32:51.436Z,101420.66
2023-03-04T09:35:21.876Z,101385.88
2023-03-04T09:37:53.029Z,101297.03
2023-03-04T09:40:27.360Z,101431.63
2023-03-04T09:43:00.322Z,101424.75
2023-03-04T09:45:41.251Z,101382.97
2023-03-04T09:48:16.544Z,101430.94
2023-03-04T09:50:57.978Z,101429.34
2023-03-04T09:53:36.985Z,101424.50
2023-03-04T09:56:08.946Z,101424.28
2023-03-04T09:58:49.758Z,101435.13
2023-03-04T10:01:26.680Z,101435.84
2023-03-04T10:04:01.197Z,101429.44
2023-03-04T10:06:34.263Z,101426.09
2023-03-04T10:09:07.175Z,101418.69
2023-03-04T10:11:40.370Z,101402.97
2023-03-04T10:14:36.935Z,101433.69
2023-03-04T10:17:17.116Z,101429.66
2023-03-04T10:19:57.221Z,101425.69
2023-03-04T10:22:34.888Z,101418.91
2023-03-04T10:25:19.086Z,101420.09
2023-03-04T10:27:53.664Z,101428.84
2023-03-04T10:30:35.333Z,101420.56
2023-03-04T10:33:14.873Z,101422.56
2023-03-04T10:35:49.041Z,101416.97
2023-03-04T10:38:19.247Z,101424.16
2023-03-04T10:40:49.396Z,101401.34
2023-03-04T10:43:21.293Z,101401.25
2023-03-04T10:45:51.699Z,101400.91
2023-03-04T10:48:27.710Z,101405.19
2023-03-04T10:51:13.232Z,101404.47
2023-03-04T10:53:45.976Z,101410.47
2023-03-04T10:56:48.363Z,101398.66
2023-03-04T10:59:35.597Z,101372.19
2023-03-04T11:02:17.687Z,101411.53
2023-03-04T11:04:56.244Z,101407.25
2023-03-04T11:07:28.725Z,101406.50
2023-03-04T11:09:58.859Z,101423.63
2023-03-04T11:12:37.018Z,101418.84
2023-03-04T11:15:20.018Z,101385.25
2023-03-04T11:17:53.873Z,101424.50
2023-03-04T11:20:38.170Z,101412.16
2023-03-04T11:23:13.297Z,101414.34
2023-03-04T11:25:46.962Z,101407.97
2023-03-04T11:28:22.001Z,101407.53
2023-03-04T11:30:58.475Z,101403.47
2023-03-04T11:33:36.220Z,101402.63
2023-03-04T11:36:23.821Z,101401.22
2023-03-04T11:38:54.866Z,101376.66
2023-03-04T11:41:32.992Z,101394.06
2023-03-04T11:44:03.810Z,101399.22
2023-03-04T11:46:56.979Z,101393.16
2023-03-04T11:49:51.589Z,101360.13
2023-03-04T11:52:35.673Z,101384.69
2023-03-04T11:55:27.910Z,101390.78
2023-03-04T11:58:11.347Z,101373.56
2023-03-04T12:00:51.940Z,101373.22
2023-03-04T12:03:43.640Z,101368.19
2023-03-04T12:06:20.453Z,101371.94
2023-03-04T12:09:13.722Z,101367.13
2023-03-04T12:11:54.470Z,101369.31
2023-03-04T12:14:32.750Z,101369.88
2023-03-04T12:17:28.146Z,101362.88
2023-03-04T12:20:19.246Z,101367.19
2023-03-04T12:22:54.267Z,101363.06
2023-03-04T12:25:55.592Z,101368.44
2023-03-04T12:28:38.972Z,101354.66
2023-03-04T12:31:36.949Z,101356.09
2023-03-04T12:34:30.170Z,101349.13
2023-03-04T12:37:20.234Z,101358.97
2023-03-04T12:40:08.987Z,101356.06
2023-03-04T12:42:51.411Z,101355.56
2023-03-04T12:45:25.558Z,101358.94
2023-03-04T12:48:05.071Z,101347.13
2023-03-04T12:50:43.593Z,101347.50
2023-03-04T12:53:24.167Z,101335.66
2023-03-04T12:55:58.361Z,101344.94
2023-03-04T12:58:32.872Z,101351.38
2023-03-04T13:01:09.497Z,101339.41
2023-03-04T13:03:45.175Z,101349.66
2023-03-04T13:06:23.929Z,101342.28
2023-03-04T13:09:05.207Z,101335.44
2023-03-04T13:11:54.860Z,101337.03
2023-03-04T13:14:35.635Z,101331.84
2023-03-04T13:17:46.814Z,101329.72
2023-03-04T13:20:25.265Z,101334.75
2023-03-04T13:22:58.461Z,101327.25
2023-03-04T13:25:44.148Z,101328.88
2023-03-04T13:28:28.428Z,101321.56
2023-03-04T13:31:24.357Z,101329.59
2023-03-04T13:33:58.293Z,101327.28
2023-03-04T13:37:00.000Z,101324.78
2023-03-04T13:39:33.553Z,101324.94
2023-03-04T13:42:04.187Z,101334.25
2023-03-04T13:45:06.808Z,101326.00
2023-03-04T13:47:54.362Z,101324.94
2023-03-04T13:50:39.625Z,101329.53
2023-03-04T13:53:43.511Z,101345.06
2023-03-04T13:56:38.442Z,101321.13
2023-03-04T13:59:32.385Z,101324.88
2023-03-04T14:02:04.768Z,101330.94
2023-03-04T14:04:40.135Z,101328.28
2023-03-04T14:07:26.096Z,101324.88
2023-03-04T14:10:04.852Z,101322.75
2023-03-04T14:12:37.576Z,101328.13
2023-03-04T14:15:09.857Z,101306.50
2023-03-04T14:17:40.562Z,101322.06
2023-03-04T14:20:27.428Z,101326.00
2023-03-04T14:22:58.283Z,101321.16
2023-03-04T14:25:29.985Z,101326.19
2023-03-04T14:28:09.716Z,101336.34
2023-03-04T14:30:43.445Z,101320.97
2023-03-04T14:33:17.871Z,101342.56
2023-03-04T14:35:54.060Z,101332.03
2023-03-04T14:38:27.505Z,101313.34
2023-03-04T14:41:03.750Z,101330.84
2023-03-04T14:43:39.014Z,101321.50
2023-03-04T14:46:14.469Z,101315.03
2023-03-04T14:48:50.427Z,101325.13
2023-03-04T14:51:36.440Z,101312.94
2023-03-04T14:54:07.264Z,101314.38
2023-03-04T14:56:38.536Z,101317.78
2023-03-04T14:59:08.496Z,101305.47
2023-03-04T15:01:40.298Z,101303.19
2023-03-04T15:04:12.272Z,101306.94
2023-03-04T15:06:54.465Z,101270.44
2023-03-04T15:09:26.749Z,101299.97
2023-03-04T15:12:05.968Z,101294.94
2023-03-04T15:14:46.764Z,101285.19
2023-03-04T15:17:29.029Z,101294.81
2023-03-04T15:20:04.909Z,101262.78
2023-03-04T15:22:38.646Z,101283.19
2023-03-04T15:25:09.249Z,101295.50
2023-03-04T15:27:40.746Z,101294.03
2023-03-04T15:30:19.817Z,101274.28
2023-03-04T15:32:50.155Z,101298.94
2023-03-04T15:35:22.261Z,101292.09
2023-03-04T15:37:55.389Z,101302.00
2023-03-04T15:40:32.663Z,101275.69
2023-03-04T15:43:05.315Z,101300.34
2023-03-04T15:45:37.979Z,101294.81
2023-03-04T15:48:09.683Z,101302.69
2023-03-04T15:50:42.605Z,101298.41
2023-03-04T15:53:19.465Z,101290.66
2023-03-04T15:55:49.990Z,101298.06
2023-03-04T15:58:20.124Z,101293.44
2023-03-04T16:00:50.090Z,101297.72
2023-03-04T16:03:22.320Z,101301.63
2023-03-04T16:05:54.381Z,101304.75
2023-03-04T16:08:27.765Z,101315.78
2023-03-04T16:10:57.743Z,101311.09
2023-03-04T16:13:27.801Z,101312.19
2023-03-04T16:15:57.830Z,101321.81
2023-03-04T16:18:27.996Z,101311.25
2023-03-04T16:20:58.032Z,101315.94
2023-03-04T16:23:30.928Z,101322.50
2023-03-04T16:26:00.885Z,101314.59
2023-03-04T16:28:30.908Z,101319.22
2023-03-04T16:31:00.979Z,101322.44
2023-03-04T16:33:30.894Z,101320.56
2023-03-04T16:36:01.383Z,101336.78
2023-03-04T16:38:35.566Z,101323.19
2023-03-04T16:41:06.232Z,101320.72
2023-03-04T16:43:36.148Z,101302.19
2023-03-04T16:46:06.468Z,101315.13
2023-03-04T16:48:37.329Z,101307.47
2023-03-04T16:51:15.436Z,101319.22
2023-03-04T16:53:52.372Z,101313.84
2023-03-04T16:56:23.190Z,101311.19
2023-03-04T16:58:54.246Z,101271.41
2023-03-04T17:01:27.039Z,101303.28
2023-03-04T17:03:58.250Z,101302.91
2023-03-04T17:06:28.377Z,101311.31
2023-03-04T17:09:01.088Z,101306.50
2023-03-04T17:11:31.456Z,101310.78
2023-03-04T17:14:02.745Z,101308.09
2023-03-04T17:16:32.703Z,101309.00
2023-03-04T17:19:03.091Z,101305.78
2023-03-04T17:21:33.536Z,101305.28
2023-03-04T17:24:11.059Z,101298.56
2023-03-04T17:26:42.784Z,101317.56
2023-03-04T17:29:12.829Z,101309.19
2023-03-04T17:31:42.940Z,101314.31
2023-03-04T17:34:13.760Z,101313.59
2023-03-04T17:36:43.732Z,101307.72
2023-03-04T17:39:16.556Z,101308.81
2023-03-04T17:41:46.629Z,101308.09
2023-03-04T17:44:17.497Z,101285.72
2023-03-04T17:46:50.624Z,101311.69
2023-03-04T17:49:20.621Z,101322.75
2023-03-04T17:51:51.633Z,101313.53
2023-03-04T17:54:24.268Z,101321.78
2023-03-04T17:56:54.489Z,101322.84
2023-03-04T17:59:24.748Z,101328.81
2023-03-04T18:01:54.796Z,101302.47
2023-03-04T18:04:25.023Z,101330.75
2023-03-04T18:06:55.002Z,101335.53
2023-03-04T18:09:27.586Z,101347.63
2023-03-04T18:11:57.531Z,101337.97
2023-03-04T18:14:27.472Z,101341.06
2023-03-04T18:16:57.356Z,101300.25
2023-03-04T18:19:27.395Z,101330.13
2023-03-04T18:21:57.592Z,101326.53
2023-03-04T18:24:30.174Z,101327.63
2023-03-04T18:27:00.169Z,101323.19
2023-03-04T18:29:30.316Z,101320.28
2023-03-04T18:32:00.323Z,101316.00
2023-03-04T18:34:30.403Z,101322.00
2023-03-04T18:37:00.246Z,101322.69
2023-03-04T18:39:32.845Z,101320.53
2023-03-04T18:42:04.921Z,101318.75
2023-03-04T18:44:35.136Z,101328.31
2023-03-04T18:47:07.013Z,101332.19
2023-03-04T18:49:37.269Z,101328.22
2023-03-04T18:52:07.382Z,101319.78
2023-03-04T18:54:40.068Z,101328.47
2023-03-04T18:57:12.753Z,101346.78
2023-03-04T18:59:47.322Z,101333.94
2023-03-04T19:02:22.481Z,101342.50
2023-03-04T19:04:54.187Z,101346.41
2023-03-04T19:07:24.336Z,101339.03
2023-03-04T19:09:57.197Z,101350.69
2023-03-04T19:12:27.268Z,101345.50
2023-03-04T19:14:57.271Z,101346.19
2023-03-04T19:17:31.110Z,101348.19
2023-03-04T19:20:01.095Z,101342.13
2023-03-04T19:22:31.610Z,101343.41
2023-03-04T19:25:04.364Z,101289.22
2023-03-04T19:27:34.492Z,101350.28
2023-03-04T19:30:04.687Z,101349.38
2023-03-04T19:32:34.941Z,101339.53
2023-03-04T19:35:05.126Z,101335.44
2023-03-04T19:37:35.068Z,101346.41
2023-03-04T19:40:09.203Z,101340.16
2023-03-04T19:42:39.451Z,101343.69
2023-03-04T19:45:12.335Z,101353.19
2023-03-04T19:47:43.149Z,101342.53
2023-03-04T19:50:15.957Z,101349.28
2023-03-04T19:52:46.373Z,101308.25
2023-03-04T19:55:19.241Z,101346.13
2023-03-04T19:57:49.264Z,101340.22
2023-03-04T20:00:22.027Z,101268.94
2023-03-04T20:02:53.618Z,101336.47
2023-03-04T20:05:23.840Z,101325.41
2023-03-04T20:07:53.924Z,101319.25
2023-03-04T20:10:26.686Z,101329.28
2023-03-04T20:12:57.690Z,101298.63
2023-03-04T20:15:27.859Z,101326.91
2023-03-04T20:17:57.962Z,101350.00
2023-03-04T20:20:29.339Z,101347.72
2023-03-04T20:22:59.645Z,101327.09
2023-03-04T20:25:32.521Z,101342.66
2023-03-04T20:28:02.551Z,101345.63
2023-03-04T20:30:32.523Z,101343.44
2023-03-04T20:33:02.684Z,101334.94
2023-03-04T20:35:32.625Z,101340.22
2023-03-04T20:38:03.413Z,101345.72
2023-03-04T20:40:36.103Z,101342.63
2023-03-04T20:43:07.121Z,101345.84
2023-03-04T20:45:39.217Z,101354.88
2023-03-04T20:48:09.817Z,101327.41
2023-03-04T20:50:39.845Z,101349.91
2023-03-04T20:53:09.900Z,101348.09
2023-03-04T20:55:42.510Z,101351.91
2023-03-04T20:58:15.324Z,101337.72
2023-03-04T21:00:45.311Z,101333.97
2023-03-04T21:03:15.580Z,101328.97
2023-03-04T21:05:45.591Z,101332.84
2023-03-04T21:08:16.107Z,101341.44
2023-03-04T21:10:51.674Z,101338.06
2023-03-04T21:13:23.533Z,101333.56
2023-03-04T21:15:53.642Z,101341.66
2023-03-04T21:18:23.811Z,101337.06
2023-03-04T21:20:54.638Z,101336.69
2023-03-04T21:23:24.719Z,101309.38
2023-03-04T21:25:57.312Z,101288.88
2023-03-04T21:28:27.175Z,101333.09
2023-03-04T21:30:57.186Z,101337.16
2023-03-04T21:33:29.918Z,101327.00
2023-03-04T21:35:59.944Z,101324.91
2023-03-04T21:38:29.925Z,101320.94
2023-03-04T21:41:02.590Z,101318.63
2023-03-04T21:43:32.551Z,101319.13
2023-03-04T21:46:02.650Z,101318.63
2023-03-04T21:48:32.831Z,101315.72
2023-03-04T21:51:05.500Z,101312.38
2023-03-04T21:53:36.000Z,101321.91
2023-03-04T21:56:08.926Z,101288.06
2023-03-04T21:58:41.617Z,101315.31
2023-03-04T22:01:16.009Z,101312.81
2023-03-04T22:03:46.231Z,101312.44
2023-03-04T22:06:16.379Z,101310.25
2023-03-04T22:08:46.342Z,101304.19
2023-03-04T22:11:19.392Z,101308.47
2023-03-04T22:13:50.645Z,101300.59
2023-03-04T22:16:20.788Z,101280.88
2023-03-04T22:18:50.691Z,101303.28
2023-03-04T22:21:22.372Z,101310.25
2023-03-04T22:23:52.308Z,101304.47
2023-03-04T22:26:32.675Z,101305.88
2023-03-04T22:29:04.160Z,101297.09
2023-03-04T22:31:36.020Z,101305.88
2023-03-04T22:34:08.911Z,101305.19
2023-03-04T22:36:40.656Z,101301.72
2023-03-04T22:39:13.560Z,101302.69
2023-03-04T22:41:46.072Z,101285.38
2023-03-04T22:44:16.698Z,101294.31
2023-03-04T22:46:46.716Z,101297.22
2023-03-04T22:49:17.728Z,101286.88
2023-03-04T22:51:47.995Z,101279.50
2023-03-04T22:54:20.382Z,101280.78
2023-03-04T22:56:53.753Z,101285.97
2023-03-04T22:59:24.856Z,101283.47
2023-03-04T23:01:56.613Z,101282.09
2023-03-04T23:04:30.405Z,101287.97
2023-03-04T23:07:02.365Z,101274.91
2023-03-04T23:09:34.148Z,101286.75
2023-03-04T23:12:09.684Z,101256.31
2023-03-04T23:14:43.836Z,101270.66
2023-03-04T23:17:15.766Z,101281.88
2023-03-04T23:19:47.972Z,101265.88
2023-03-04T23:22:21.233Z,101264.28
2023-03-04T23:24:53.385Z,101279.38
2023-03-04T23:27:27.713Z,101281.69
2023-03-04T23:29:58.274Z,101285.28
2023-03-04T23:32:28.395Z,101270.34
2023-03-04T23:34:58.386Z,101268.84
2023-03-04T23:37:28.429Z,101268.66
2023-03-04T23:39:58.287Z,101224.53
2023-03-04T23:42:30.922Z,101269.06
2023-03-04T23:45:00.881Z,101112.50
2023-03-04T23:47:32.625Z,101234.19
2023-03-04T23:50:06.023Z,101265.47
2023-03-04T23:52:38.475Z,101260.28
2023-03-04T23:55:11.200Z,101261.19
2023-03-04T23:57:45.264Z,101267.97
